»·PEaware :: N325TF KJFK-CYYZ

N325TF :: KJFK-CYYZ

FLIGHT INFORMATION

Flight Status: Arrived
Operator: Privately registered:
United States
More flights under this callsign
Pilot: Charles S. (8758)
Aircraft: BOEING 737-800
(B738)
More flights by this aircraft type
Origin: KJFK Kennedy Intl
United States
Destination: CYYZ Toronto/Pearson Intl
Canada
More flights between these airports :: More routes between these airports
Route: KJFK1 XIGAM YYZ
File this flight plan on PilotEdge
Remarks:
Altitude:
(Current/Filed)
24,000ft
Speed:
(Current/Filed)
450kts
Departed: 25-Sep-15 05:21 PM
Arrived: 25-Sep-15 06:41 PM
Distance/Time
Traveled:
319nm/1:20
Distance/Time
To Go:
Arrived

Flight Plot

Page will automatically refresh every two minutes.


Map Options




Map Legend


Flown Route
Filed Route
Departure Airport
Arrival Airport
Navaid (VOR, NDB)
Fix

Horizontal Profiles

Position Reports

Time Latitude Longitude Heading Altitude Ground
Speed
25-Sep-15 17:21 40.648007 -73.777407 266 20ft 0kts
25-Sep-15 17:22 40.648007 -73.777409 266 20ft 0kts
25-Sep-15 17:23 40.648007 -73.777411 266 20ft 0kts
25-Sep-15 17:24 40.648007 -73.777413 266 20ft 0kts
25-Sep-15 17:25 40.648007 -73.777415 266 20ft 0kts
25-Sep-15 17:26 40.648007 -73.777417 266 20ft 0kts
25-Sep-15 17:27 40.648006 -73.777419 266 20ft 0kts
25-Sep-15 17:28 40.648006 -73.777421 266 20ft 0kts
25-Sep-15 17:29 40.648006 -73.777423 266 20ft 0kts
25-Sep-15 17:30 40.648004 -73.777151 278 20ft 2kts
25-Sep-15 17:31 40.647761 -73.776598 320 20ft 0kts
25-Sep-15 17:32 40.648901 -73.775701 315 20ft 6kts
25-Sep-15 17:33 40.652253 -73.785604 236 20ft 24kts
25-Sep-15 17:34 40.648736 -73.793257 222 20ft 41kts
25-Sep-15 17:35 40.641297 -73.796741 286 20ft 12kts
25-Sep-15 17:36 40.643963 -73.802907 296 20ft 34kts
25-Sep-15 17:37 40.646881 -73.809602 302 20ft 37kts
25-Sep-15 17:38 40.646531 -73.812549 153 20ft 6kts
25-Sep-15 17:39 40.646478 -73.812476 130 20ft 0kts
25-Sep-15 17:40 40.646476 -73.812473 130 20ft 0kts
25-Sep-15 17:41 40.646474 -73.812470 130 20ft 0kts
25-Sep-15 17:42 40.646471 -73.812465 130 20ft 0kts
25-Sep-15 17:43 40.642752 -73.804240 120 21ft 122kts
25-Sep-15 17:44 40.615039 -73.747012 110 2113ft 217kts
25-Sep-15 17:45 40.609826 -73.663701 88 4957ft 254kts
25-Sep-15 17:46 40.666157 -73.625497 329 8155ft 292kts
25-Sep-15 17:47 40.704512 -73.721854 290 11055ft 336kts
25-Sep-15 17:48 40.739837 -73.850358 293 12638ft 391kts
25-Sep-15 17:49 40.786635 -73.981956 299 15269ft 399kts
25-Sep-15 17:50 40.843103 -74.109435 302 17981ft 397kts
25-Sep-15 17:51 40.896768 -74.223499 303 19232ft 421kts
25-Sep-15 17:52 40.960674 -74.356958 302 21243ft 433kts
25-Sep-15 17:53 41.026447 -74.493846 302 22947ft 447kts
25-Sep-15 17:54 41.094553 -74.635604 301 24357ft 461kts
25-Sep-15 17:55 41.163304 -74.779786 301 25762ft 471kts
25-Sep-15 17:56 41.234442 -74.928981 301 26929ft 482kts
25-Sep-15 17:57 41.268202 -75.000110 301 27552ft 484kts
25-Sep-15 17:58 41.330491 -75.131870 301 29336ft 471kts
25-Sep-15 17:59 41.400072 -75.279645 301 30842ft 468kts
25-Sep-15 18:00 41.468959 -75.426690 301 32233ft 465kts
25-Sep-15 18:01 41.537061 -75.572772 301 33529ft 463kts
25-Sep-15 18:02 41.605005 -75.719227 301 34751ft 460kts
25-Sep-15 18:03 41.672245 -75.864872 301 35851ft 458kts
25-Sep-15 18:04 41.739222 -76.010652 301 36769ft 459kts
25-Sep-15 18:05 41.806327 -76.157427 301 37013ft 460kts
25-Sep-15 18:06 41.918152 -76.403563 300 37013ft 459kts
25-Sep-15 18:07 42.050408 -76.697590 302 37002ft 462kts
25-Sep-15 18:08 42.187560 -77.003357 296 37006ft 486kts
25-Sep-15 18:09 42.255234 -77.157666 295 37010ft 425kts
25-Sep-15 18:10 42.311390 -77.288346 301 37011ft 390kts
25-Sep-15 18:11 42.367831 -77.415804 304 37020ft 398kts
25-Sep-15 18:12 42.424424 -77.544828 304 37031ft 400kts
25-Sep-15 18:13 42.481185 -77.675303 304 37035ft 402kts
25-Sep-15 18:14 42.537947 -77.806483 304 37034ft 402kts
25-Sep-15 18:15 42.594598 -77.938108 303 37033ft 402kts
25-Sep-15 18:16 42.641673 -78.047914 303 37036ft 402kts
25-Sep-15 18:17 42.707284 -78.201672 303 37030ft 402kts
25-Sep-15 18:18 42.754159 -78.312021 304 37023ft 405kts
25-Sep-15 18:19 42.825637 -78.423536 346 37026ft 397kts
25-Sep-15 18:20 42.915929 -78.345080 66 37016ft 467kts
25-Sep-15 18:21 42.880019 -78.167877 115 37035ft 520kts
25-Sep-15 18:22 42.806971 -77.996589 115 37036ft 518kts
25-Sep-15 18:23 42.759406 -77.884795 115 37037ft 521kts
25-Sep-15 18:24 42.686906 -77.713909 115 37037ft 521kts
25-Sep-15 18:25 42.568225 -77.614454 183 37029ft 519kts
25-Sep-15 18:26 42.460574 -77.708910 254 37049ft 451kts
25-Sep-15 18:27 42.475115 -77.859373 317 37038ft 398kts
25-Sep-15 18:28 42.645226 -78.042994 303 37036ft 405kts
25-Sep-15 18:29 42.754350 -78.312245 303 37024ft 409kts
25-Sep-15 18:30 42.868690 -78.582910 303 37020ft 411kts
25-Sep-15 18:31 42.966218 -78.794509 313 36718ft 401kts
25-Sep-15 18:32 43.038845 -78.912658 310 35119ft 401kts
25-Sep-15 18:33 43.108060 -79.028165 310 35004ft 383kts
25-Sep-15 18:34 43.173993 -79.138013 310 33142ft 370kts
25-Sep-15 18:35 43.239568 -79.248537 313 29793ft 375kts
25-Sep-15 18:36 43.310282 -79.348936 333 26575ft 344kts
25-Sep-15 18:37 43.392387 -79.400007 333 23266ft 310kts
25-Sep-15 18:38 43.469263 -79.439378 10 19965ft 297kts
25-Sep-15 18:39 43.489490 -79.345155 125 16657ft 313kts
25-Sep-15 18:40 43.416995 -79.357433 245 13442ft 298kts
25-Sep-15 18:41 43.444948 -79.442249 335 10921ft 259kts
25-Sep-15 18:42 43.505549 -79.480074 333 8820ft 273kts
25-Sep-15 18:43 43.567508 -79.530949 304 7298ft 251kts
25-Sep-15 18:44 43.551461 -79.613279 226 5807ft 238kts
25-Sep-15 18:45 43.505806 -79.678463 229 4300ft 233kts
25-Sep-15 18:46 43.519566 -79.751898 309 2556ft 189kts
25-Sep-15 18:47 43.547383 -79.796540 310 2349ft 149kts
25-Sep-15 18:48 43.579481 -79.804363 42 2503ft 144kts
25-Sep-15 18:49 43.581309 -79.801839 43 2511ft 144kts
25-Sep-15 18:50 43.592061 -79.785315 48 2510ft 145kts
25-Sep-15 18:51 43.617900 -79.745680 47 2245ft 150kts
25-Sep-15 18:52 43.643510 -79.708245 46 1462ft 121kts
25-Sep-15 18:53 43.665978 -79.675800 46 839ft 114kts
25-Sep-15 18:54 43.680274 -79.654906 100 577ft 13kts

Navigation Log

Ident Type
Flight plan parsing failed, navigation log unavailable